Terminal Aerodrome Forecast
Issued by NWS

Home | Current Version | Previous Version | Text Only | Print | Product List | Glossary On
Versions: 1 2 3 4 5 6 7 8 9 10 11 12 13 14 15 16 17 18 19
000
FTUS44 KCRP 241738
TAFALI
TAF
KALI 241738Z 2418/2518 16013G19KT P6SM SCT030
     FM250400 16010KT P6SM BKN015
     FM251400 15015KT P6SM VCSH BKN025
     FM251700 15015G20KT P6SM SHRA BKN035=

USA.gov is the U.S. government's official web portal to all federal, state and local government web resources and services.